Time,TemperatureF,DewpointF,PressureIn,WindDirection,WindDirectionDegrees,WindSpeedMPH,WindSpeedGustMPH,Humidity,HourlyPrecipIn,Conditions,Clouds,dailyrainin,SoftwareType,DateUTC
2013-11-03 00:00:00,43.5,29.3,29.97,WNW,292,0.0,0.0,57,0.00,,CLR,0.00,VWS V14.01,2013-11-03 04:00:00,
2013-11-03 00:01:00,43.5,29.3,29.97,WNW,292,0.0,0.0,57,0.00,,CLR,0.00,VWS V14.01,2013-11-03 04:01:00,
2013-11-03 00:02:00,43.3,29.6,29.97,WNW,292,0.0,0.0,58,0.00,,CLR,0.00,VWS V14.01,2013-11-03 04:02:00,
2013-11-03 00:03:00,43.3,29.6,29.97,WNW,292,0.0,0.0,58,0.00,,CLR,0.00,VWS V14.01,2013-11-03 04:03:00,
2013-11-03 00:08:00,42.6,29.7,29.97,WNW,292,0.0,0.0,60,0.00,,CLR,0.00,VWS V14.01,2013-11-03 04:08:00,
2013-11-03 00:13:00,42.3,30.2,29.97,WNW,292,0.0,0.0,62,0.00,,CLR,0.00,VWS V14.01,2013-11-03 04:13:00,
2013-11-03 00:18:00,41.7,30.8,29.97,WNW,292,0.0,0.0,65,0.00,,CLR,0.00,VWS V14.01,2013-11-03 04:18:00,
2013-11-03 00:23:00,41.5,32.5,29.97,WNW,292,0.0,0.0,70,0.00,,CLR,0.00,VWS V14.01,2013-11-03 04:23:00,
2013-11-03 00:28:00,41.4,33.4,29.97,WNW,292,0.0,0.0,73,0.00,,CLR,0.00,VWS V14.01,2013-11-03 04:28:00,
2013-11-03 00:33:00,40.8,33.8,29.97,WNW,292,0.0,0.0,76,0.00,,CLR,0.00,VWS V14.01,2013-11-03 04:33:00,
2013-11-03 00:38:00,40.5,33.8,29.97,WNW,292,0.0,0.0,77,0.00,,CLR,0.00,VWS V14.01,2013-11-03 04:38:00,
2013-11-03 00:43:00,40.3,34.0,29.97,WNW,292,0.0,0.0,78,0.00,,CLR,0.00,VWS V14.01,2013-11-03 04:43:00,
2013-11-03 00:48:00,40.6,34.7,29.97,WNW,292,0.0,0.0,79,0.00,,CLR,0.00,VWS V14.01,2013-11-03 04:48:00,
2013-11-03 00:54:00,40.5,34.5,29.97,WNW,292,0.0,0.0,79,0.00,,CLR,0.00,VWS V14.01,2013-11-03 04:54:00,
2013-11-03 00:59:00,40.1,34.4,29.97,WNW,292,2.7,2.7,80,0.00,,CLR,0.00,VWS V14.01,2013-11-03 04:59:00,
2013-11-03 01:00:00,38.5,34.7,29.97,WNW,292,0.0,0.0,86,0.00,,CLR,0.00,VWS V14.01,2013-11-03 05:00:00,
2013-11-03 01:01:00,38.5,34.7,29.97,WNW,292,0.0,0.0,86,0.00,,CLR,0.00,VWS V14.01,2013-11-03 05:01:00,
2013-11-03 01:02:00,38.5,35.0,29.97,WNW,292,0.0,0.0,87,0.00,,CLR,0.00,VWS V14.01,2013-11-03 05:02:00,
2013-11-03 01:03:00,38.5,35.0,29.97,WNW,292,0.0,0.0,87,0.00,,CLR,0.00,VWS V14.01,2013-11-03 05:03:00,
2013-11-03 01:04:00,40.8,35.1,29.97,WNW,292,0.0,2.2,80,0.00,,CLR,0.00,VWS V14.01,2013-11-03 05:04:00,
2013-11-03 01:05:00,38.5,35.0,29.97,WNW,292,0.0,2.7,87,0.00,,CLR,0.00,VWS V14.01,2013-11-03 05:05:00,
2013-11-03 01:06:00,38.5,35.0,29.97,WNW,292,0.0,2.7,87,0.00,,CLR,0.00,VWS V14.01,2013-11-03 05:06:00,
2013-11-03 01:07:00,38.5,35.2,29.97,WNW,292,0.0,2.7,88,0.00,,CLR,0.00,VWS V14.01,2013-11-03 05:07:00,
2013-11-03 01:08:00,38.3,35.1,29.97,WNW,292,0.0,2.7,88,0.00,,CLR,0.00,VWS V14.01,2013-11-03 05:08:00,
2013-11-03 01:09:00,41.0,34.7,29.97,WNW,292,0.0,0.0,78,0.00,,CLR,0.00,VWS V14.01,2013-11-03 05:09:00,
2013-11-03 01:10:00,38.3,35.1,29.97,WNW,292,0.0,2.7,88,0.00,,CLR,0.00,VWS V14.01,2013-11-03 05:10:00,
2013-11-03 01:11:00,38.3,35.1,29.97,WNW,292,0.0,2.7,88,0.00,,CLR,0.00,VWS V14.01,2013-11-03 05:11:00,
2013-11-03 01:12:00,38.3,35.1,29.97,WNW,292,0.0,2.7,88,0.00,,CLR,0.00,VWS V14.01,2013-11-03 05:12:00,
2013-11-03 01:13:00,38.3,35.1,29.97,WNW,292,2.7,2.7,88,0.00,,CLR,0.00,VWS V14.01,2013-11-03 05:13:00,
2013-11-03 01:14:00,40.6,34.3,29.97,WNW,292,0.0,0.0,78,0.00,,CLR,0.00,VWS V14.01,2013-11-03 05:14:00,
2013-11-03 01:15:00,38.3,35.3,29.97,WNW,292,0.0,3.6,89,0.00,,CLR,0.00,VWS V14.01,2013-11-03 05:15:00,
2013-11-03 01:16:00,38.3,35.3,29.97,WNW,292,2.7,3.6,89,0.00,,CLR,0.00,VWS V14.01,2013-11-03 05:16:00,
2013-11-03 01:17:00,38.3,35.3,29.97,WNW,292,0.0,3.6,89,0.00,,CLR,0.00,VWS V14.01,2013-11-03 05:17:00,
2013-11-03 01:18:00,38.3,35.3,29.97,WNW,292,0.0,3.6,89,0.00,,CLR,0.00,VWS V14.01,2013-11-03 05:18:00,
2013-11-03 01:19:00,40.6,34.3,29.97,WNW,292,0.0,0.0,78,0.00,,CLR,0.00,VWS V14.01,2013-11-03 05:19:00,
2013-11-03 01:22:00,38.8,36.2,29.97,WNW,292,2.7,3.6,90,0.00,,CLR,0.00,VWS V14.01,2013-11-03 05:22:00,
2013-11-03 01:24:00,40.5,34.5,29.97,WNW,292,0.0,0.0,79,0.00,,CLR,0.00,VWS V14.01,2013-11-03 05:24:00,
2013-11-03 01:25:00,38.7,36.0,29.97,WNW,292,0.0,3.6,90,0.00,,CLR,0.00,VWS V14.01,2013-11-03 05:25:00,
2013-11-03 01:26:00,38.7,36.0,29.97,WNW,292,0.0,3.6,90,0.00,,CLR,0.00,VWS V14.01,2013-11-03 05:26:00,
2013-11-03 01:28:00,38.7,36.0,29.97,WNW,292,0.0,3.6,90,0.00,,CLR,0.00,VWS V14.01,2013-11-03 05:28:00,
2013-11-03 01:29:00,40.3,34.9,29.97,WNW,292,0.0,0.0,81,0.00,,CLR,0.00,VWS V14.01,2013-11-03 05:29:00,
2013-11-03 01:30:00,38.5,35.8,29.97,WNW,292,0.0,3.6,90,0.00,,CLR,0.00,VWS V14.01,2013-11-03 05:30:00,
2013-11-03 01:31:00,38.5,35.8,29.97,WNW,292,0.0,3.6,90,0.00,,CLR,0.00,VWS V14.01,2013-11-03 05:31:00,
2013-11-03 01:32:00,38.5,35.8,29.97,WNW,292,0.0,3.6,90,0.00,,CLR,0.00,VWS V14.01,2013-11-03 05:32:00,
2013-11-03 01:34:00,39.9,34.9,29.97,WNW,292,0.0,0.0,82,0.00,,CLR,0.00,VWS V14.01,2013-11-03 05:34:00,
2013-11-03 01:35:00,38.7,36.3,30.00,WNW,292,0.0,3.6,91,0.00,,CLR,0.00,VWS V14.01,2013-11-03 05:35:00,
2013-11-03 01:37:00,38.5,36.1,30.00,WNW,292,0.0,3.6,91,0.00,,CLR,0.00,VWS V14.01,2013-11-03 05:37:00,
2013-11-03 01:39:00,39.7,35.0,29.97,WNW,292,0.0,0.0,83,0.00,,CLR,0.00,VWS V14.01,2013-11-03 05:39:00,
2013-11-03 01:44:00,39.6,35.1,29.97,WNW,292,2.2,2.2,84,0.00,,CLR,0.00,VWS V14.01,2013-11-03 05:44:00,
2013-11-03 01:49:00,39.4,35.0,29.97,WNW,292,0.0,0.0,84,0.00,,CLR,0.00,VWS V14.01,2013-11-03 05:49:00,
2013-11-03 01:54:00,39.0,34.9,29.97,WNW,292,0.0,0.0,85,0.00,,CLR,0.00,VWS V14.01,2013-11-03 05:54:00,
2013-11-03 01:59:00,38.7,34.8,29.97,WNW,292,0.0,0.0,86,0.00,,CLR,0.00,VWS V14.01,2013-11-03 05:59:00,
2013-11-03 01:16:00,38.3,35.3,29.97,WNW,292,2.7,3.6,89,0.00,,CLR,0.00,VWS V14.01,2013-11-03 06:16:00,
2013-11-03 01:21:00,38.5,35.8,29.97,WNW,292,0.0,3.6,90,0.00,,CLR,0.00,VWS V14.01,2013-11-03 06:21:00,
2013-11-03 01:26:00,38.7,36.0,29.97,WNW,292,0.0,3.6,90,0.00,,CLR,0.00,VWS V14.01,2013-11-03 06:26:00,
2013-11-03 01:31:00,38.5,35.8,29.97,WNW,292,0.0,3.6,90,0.00,,CLR,0.00,VWS V14.01,2013-11-03 06:31:00,
2013-11-03 01:36:00,38.7,36.3,30.00,WNW,292,0.0,3.6,91,0.00,,CLR,0.00,VWS V14.01,2013-11-03 06:36:00,
2013-11-03 01:41:00,38.5,36.1,30.00,WNW,292,0.0,3.6,91,0.00,,CLR,0.00,VWS V14.01,2013-11-03 06:41:00,
2013-11-03 01:46:00,38.5,36.4,30.00,WNW,292,0.0,3.6,92,0.00,,CLR,0.00,VWS V14.01,2013-11-03 06:46:00,
2013-11-03 01:51:00,38.1,36.0,29.97,WNW,292,0.0,3.6,92,0.00,,CLR,0.00,VWS V14.01,2013-11-03 06:51:00,
2013-11-03 01:56:00,37.9,35.8,29.97,WNW,292,0.0,3.6,92,0.00,,CLR,0.00,VWS V14.01,2013-11-03 06:56:00,
2013-11-03 02:01:00,37.8,35.7,29.97,WNW,292,0.0,0.0,92,0.00,,CLR,0.00,VWS V14.01,2013-11-03 07:01:00,
2013-11-03 02:06:00,37.9,36.1,30.00,WNW,292,2.2,2.2,93,0.00,,CLR,0.00,VWS V14.01,2013-11-03 07:06:00,
2013-11-03 02:11:00,37.8,35.9,30.00,WNW,292,0.0,0.0,93,0.00,,CLR,0.00,VWS V14.01,2013-11-03 07:11:00,
2013-11-03 02:16:00,37.6,35.7,30.00,WNW,292,0.0,0.0,93,0.00,,CLR,0.00,VWS V14.01,2013-11-03 07:16:00,
2013-11-03 02:21:00,37.4,35.8,30.00,WNW,292,0.0,0.0,94,0.00,,CLR,0.00,VWS V14.01,2013-11-03 07:21:00,
2013-11-03 02:26:00,37.4,36.1,30.00,WNW,292,0.0,0.0,95,0.00,,CLR,0.00,VWS V14.01,2013-11-03 07:26:00,
2013-11-03 02:31:00,37.2,35.9,30.00,WNW,292,0.0,0.0,95,0.00,,CLR,0.00,VWS V14.01,2013-11-03 07:31:00,
2013-11-03 02:36:00,37.4,36.1,30.00,WNW,292,0.0,0.0,95,0.00,,CLR,0.00,VWS V14.01,2013-11-03 07:36:00,
2013-11-03 02:41:00,37.0,36.0,30.00,WNW,292,0.0,0.0,96,0.00,,CLR,0.00,VWS V14.01,2013-11-03 07:41:00,
2013-11-03 02:46:00,36.9,35.8,30.00,WNW,292,0.0,0.0,96,0.00,,CLR,0.00,VWS V14.01,2013-11-03 07:46:00,
2013-11-03 02:51:00,36.7,35.7,30.00,WNW,292,0.0,0.0,96,0.00,,CLR,0.00,VWS V14.01,2013-11-03 07:51:00,
2013-11-03 02:56:00,36.7,35.9,30.00,WNW,292,0.0,0.0,97,0.00,,CLR,0.00,VWS V14.01,2013-11-03 07:56:00,
2013-11-03 03:01:00,36.7,35.9,30.00,WNW,292,0.0,0.0,97,0.00,,CLR,0.00,VWS V14.01,2013-11-03 08:01:00,
2013-11-03 03:06:00,36.5,35.7,30.00,WNW,292,2.2,2.2,97,0.00,,CLR,0.00,VWS V14.01,2013-11-03 08:06:00,
2013-11-03 03:11:00,36.1,35.4,30.00,WNW,292,0.0,0.0,97,0.00,,CLR,0.00,VWS V14.01,2013-11-03 08:11:00,
2013-11-03 03:16:00,35.8,35.0,30.00,WNW,292,0.0,0.0,97,0.00,,CLR,0.00,VWS V14.01,2013-11-03 08:16:00,
2013-11-03 03:21:00,35.6,34.8,30.00,WNW,292,0.0,0.0,97,0.00,,CLR,0.00,VWS V14.01,2013-11-03 08:21:00,
2013-11-03 03:26:00,35.6,34.8,30.00,WNW,292,0.0,0.0,97,0.00,,CLR,0.00,VWS V14.01,2013-11-03 08:26:00,
2013-11-03 03:31:00,35.4,34.9,30.00,WNW,292,0.0,0.0,98,0.00,,CLR,0.00,VWS V14.01,2013-11-03 08:31:00,
2013-11-03 03:36:00,36.1,35.6,30.03,WNW,292,0.0,0.0,98,0.00,,CLR,0.00,VWS V14.01,2013-11-03 08:36:00,
2013-11-03 03:41:00,36.9,36.3,30.03,WNW,292,0.0,0.0,98,0.00,,CLR,0.00,VWS V14.01,2013-11-03 08:41:00,
2013-11-03 03:46:00,36.7,36.2,30.03,WNW,292,0.0,0.0,98,0.00,,CLR,0.00,VWS V14.01,2013-11-03 08:46:00,
2013-11-03 03:51:00,37.4,36.6,30.03,WNW,292,0.0,0.0,97,0.00,,CLR,0.00,VWS V14.01,2013-11-03 08:51:00,
2013-11-03 03:56:00,37.0,36.3,30.03,WNW,292,0.0,0.0,97,0.00,,CLR,0.00,VWS V14.01,2013-11-03 08:56:00,
2013-11-03 04:01:00,37.0,36.3,30.03,WNW,292,0.0,0.0,97,0.00,,CLR,0.00,VWS V14.01,2013-11-03 09:01:00,
2013-11-03 04:06:00,37.0,36.3,30.03,WNW,292,0.0,0.0,97,0.00,,CLR,0.00,VWS V14.01,2013-11-03 09:06:00,
2013-11-03 04:11:00,37.0,36.3,30.03,WNW,292,0.0,0.0,97,0.00,,CLR,0.00,VWS V14.01,2013-11-03 09:11:00,
2013-11-03 04:16:00,37.0,36.3,30.03,WNW,292,0.0,0.0,97,0.00,,CLR,0.00,VWS V14.01,2013-11-03 09:16:00,
2013-11-03 04:21:00,37.2,36.5,30.03,WNW,292,0.0,0.0,97,0.00,,CLR,0.00,VWS V14.01,2013-11-03 09:21:00,
2013-11-03 04:26:00,37.0,36.3,30.03,WNW,292,0.0,0.0,97,0.00,,CLR,0.00,VWS V14.01,2013-11-03 09:26:00,
2013-11-03 04:31:00,37.6,36.5,30.03,WNW,292,0.0,0.0,96,0.00,,CLR,0.00,VWS V14.01,2013-11-03 09:31:00,
2013-11-03 04:36:00,37.8,36.7,30.03,WNW,292,0.0,0.0,96,0.00,,CLR,0.00,VWS V14.01,2013-11-03 09:36:00,
2013-11-03 04:41:00,38.1,36.8,30.03,WNW,292,0.0,0.0,95,0.00,,CLR,0.00,VWS V14.01,2013-11-03 09:41:00,
2013-11-03 04:46:00,38.8,37.3,30.03,WNW,292,0.0,0.0,94,0.00,,CLR,0.00,VWS V14.01,2013-11-03 09:46:00,
2013-11-03 04:51:00,38.7,36.8,30.03,WNW,292,0.0,0.0,93,0.00,,CLR,0.00,VWS V14.01,2013-11-03 09:51:00,
2013-11-03 04:56:00,38.5,36.4,30.03,WNW,292,0.0,0.0,92,0.00,,CLR,0.00,VWS V14.01,2013-11-03 09:56:00,
2013-11-03 05:01:00,38.1,35.7,30.03,WNW,292,0.0,0.0,91,0.00,,CLR,0.00,VWS V14.01,2013-11-03 10:01:00,
2013-11-03 05:06:00,38.1,35.7,30.06,WNW,292,0.0,0.0,91,0.00,,CLR,0.00,VWS V14.01,2013-11-03 10:06:00,
2013-11-03 05:11:00,38.1,35.5,30.06,WNW,292,0.0,0.0,90,0.00,,CLR,0.00,VWS V14.01,2013-11-03 10:11:00,
2013-11-03 05:16:00,37.4,34.7,30.06,WNW,292,0.0,0.0,90,0.00,,CLR,0.00,VWS V14.01,2013-11-03 10:16:00,
2013-11-03 05:21:00,37.4,34.7,30.06,WNW,292,0.0,0.0,90,0.00,,CLR,0.00,VWS V14.01,2013-11-03 10:21:00,
2013-11-03 05:26:00,37.2,34.6,30.06,WNW,292,0.0,0.0,90,0.00,,CLR,0.00,VWS V14.01,2013-11-03 10:26:00,
2013-11-03 05:31:00,36.9,34.5,30.06,WNW,292,0.0,0.0,91,0.00,,CLR,0.00,VWS V14.01,2013-11-03 10:31:00,
2013-11-03 05:36:00,36.7,34.3,30.06,WNW,292,0.0,0.0,91,0.00,,CLR,0.00,VWS V14.01,2013-11-03 10:36:00,
2013-11-03 05:41:00,36.3,34.2,30.06,WNW,292,0.0,0.0,92,0.00,,CLR,0.00,VWS V14.01,2013-11-03 10:41:00,
2013-11-03 05:46:00,36.1,34.3,30.06,WNW,292,0.0,0.0,93,0.00,,CLR,0.00,VWS V14.01,2013-11-03 10:46:00,
2013-11-03 05:51:00,36.3,34.5,30.06,WNW,292,0.0,0.0,93,0.00,,CLR,0.00,VWS V14.01,2013-11-03 10:51:00,
2013-11-03 05:56:00,36.3,34.8,30.06,WNW,292,0.0,0.0,94,0.00,,CLR,0.00,VWS V14.01,2013-11-03 10:56:00,
2013-11-03 06:01:00,36.7,35.1,30.06,WNW,292,0.0,0.0,94,0.00,,CLR,0.00,VWS V14.01,2013-11-03 11:01:00,
2013-11-03 06:06:00,36.9,35.3,30.09,WNW,292,0.0,0.0,94,0.00,,CLR,0.00,VWS V14.01,2013-11-03 11:06:00,
2013-11-03 06:11:00,36.7,35.1,30.09,WNW,292,0.0,0.0,94,0.00,,CLR,0.00,VWS V14.01,2013-11-03 11:11:00,
2013-11-03 06:16:00,36.5,34.9,30.09,WNW,292,0.0,0.0,94,0.00,,CLR,0.00,VWS V14.01,2013-11-03 11:16:00,
2013-11-03 06:21:00,36.3,35.0,30.09,WNW,292,0.0,0.0,95,0.00,,CLR,0.00,VWS V14.01,2013-11-03 11:21:00,
2013-11-03 06:26:00,36.9,35.6,30.09,WNW,292,0.0,0.0,95,0.00,,CLR,0.00,VWS V14.01,2013-11-03 11:26:00,
2013-11-03 06:31:00,37.9,36.6,30.09,WNW,292,0.0,0.0,95,0.00,,CLR,0.00,VWS V14.01,2013-11-03 11:31:00,
2013-11-03 06:36:00,37.9,36.4,30.09,WNW,292,0.0,0.0,94,0.00,,CLR,0.00,VWS V14.01,2013-11-03 11:36:00,
2013-11-03 06:41:00,37.6,35.7,30.09,WNW,292,0.0,0.0,93,0.00,,CLR,0.00,VWS V14.01,2013-11-03 11:41:00,
2013-11-03 06:46:00,37.4,35.3,30.09,WNW,292,0.0,0.0,92,0.00,,CLR,0.00,VWS V14.01,2013-11-03 11:46:00,
2013-11-03 06:51:00,37.4,35.3,30.12,WNW,292,0.0,0.0,92,0.00,,CLR,0.00,VWS V14.01,2013-11-03 11:51:00,
2013-11-03 06:56:00,37.6,35.2,30.12,WNW,292,0.0,0.0,91,0.00,,CLR,0.00,VWS V14.01,2013-11-03 11:56:00,
2013-11-03 07:01:00,37.6,35.2,30.12,WNW,292,0.0,0.0,91,0.00,,CLR,0.00,VWS V14.01,2013-11-03 12:01:00,
2013-11-03 07:06:00,37.9,35.5,30.09,WNW,292,0.0,0.0,91,0.00,,CLR,0.00,VWS V14.01,2013-11-03 12:06:00,
2013-11-03 07:11:00,38.3,35.6,30.09,WNW,292,0.0,0.0,90,0.00,,CLR,0.00,VWS V14.01,2013-11-03 12:11:00,
2013-11-03 07:16:00,38.8,35.9,30.09,WNW,292,0.0,0.0,89,0.00,,CLR,0.00,VWS V14.01,2013-11-03 12:16:00,
2013-11-03 07:21:00,38.8,35.6,30.12,WNW,292,0.0,0.0,88,0.00,,CLR,0.00,VWS V14.01,2013-11-03 12:21:00,
2013-11-03 07:26:00,39.6,36.0,30.12,WNW,292,2.2,2.2,87,0.00,,CLR,0.00,VWS V14.01,2013-11-03 12:26:00,
2013-11-03 07:31:00,41.0,36.5,30.12,WNW,292,2.7,2.7,84,0.00,,CLR,0.00,VWS V14.01,2013-11-03 12:31:00,
2013-11-03 07:36:00,41.7,36.3,30.12,WNW,292,0.0,0.0,81,0.00,,CLR,0.00,VWS V14.01,2013-11-03 12:36:00,
2013-11-03 07:41:00,42.4,36.1,30.12,WNW,292,0.0,0.0,78,0.00,,CLR,0.00,VWS V14.01,2013-11-03 12:41:00,
2013-11-03 07:46:00,41.9,35.5,30.12,WNW,292,0.0,0.0,78,0.00,,CLR,0.00,VWS V14.01,2013-11-03 12:46:00,
2013-11-03 07:51:00,42.1,35.7,30.15,WNW,292,0.0,0.0,78,0.00,,CLR,0.00,VWS V14.01,2013-11-03 12:51:00,
2013-11-03 07:56:00,41.7,36.0,30.15,WNW,292,0.0,0.0,80,0.00,,CLR,0.00,VWS V14.01,2013-11-03 12:56:00,
2013-11-03 08:01:00,41.7,36.3,30.15,WNW,292,0.0,0.0,81,0.00,,CLR,0.00,VWS V14.01,2013-11-03 13:01:00,
2013-11-03 08:06:00,41.7,36.3,30.15,WNW,292,0.0,0.0,81,0.00,,CLR,0.00,VWS V14.01,2013-11-03 13:06:00,
2013-11-03 08:11:00,41.7,36.6,30.15,WNW,292,0.0,0.0,82,0.00,,CLR,0.00,VWS V14.01,2013-11-03 13:11:00,
2013-11-03 08:16:00,42.1,37.0,30.15,WNW,292,2.2,3.1,82,0.00,,CLR,0.00,VWS V14.01,2013-11-03 13:16:00,
2013-11-03 08:21:00,43.3,37.6,30.15,WNW,292,0.0,0.0,80,0.00,,CLR,0.00,VWS V14.01,2013-11-03 13:21:00,
2013-11-03 08:26:00,44.2,37.8,30.15,WNW,292,0.0,0.0,78,0.00,,CLR,0.00,VWS V14.01,2013-11-03 13:26:00,
2013-11-03 08:31:00,46.2,37.7,30.15,WNW,292,0.0,0.0,72,0.00,,CLR,0.00,VWS V14.01,2013-11-03 13:31:00,
2013-11-03 08:36:00,47.1,37.1,30.18,WNW,292,0.0,0.0,68,0.00,,CLR,0.00,VWS V14.01,2013-11-03 13:36:00,
2013-11-03 08:41:00,48.2,35.0,30.18,WNW,292,2.7,2.7,60,0.00,,CLR,0.00,VWS V14.01,2013-11-03 13:41:00,
2013-11-03 08:46:00,48.9,33.0,30.18,WNW,292,0.0,0.0,54,0.00,,CLR,0.00,VWS V14.01,2013-11-03 13:46:00,
2013-11-03 08:51:00,49.3,32.4,30.18,WNW,292,2.7,2.7,52,0.00,,CLR,0.00,VWS V14.01,2013-11-03 13:51:00,
2013-11-03 08:56:00,50.0,30.6,30.18,WNW,292,2.7,2.7,47,0.00,,CLR,0.00,VWS V14.01,2013-11-03 13:56:00,
2013-11-03 09:01:00,50.5,28.9,30.18,WNW,292,2.7,2.7,43,0.00,,CLR,0.00,VWS V14.01,2013-11-03 14:01:00,
2013-11-03 09:06:00,50.9,28.1,30.18,WNW,292,2.2,2.2,41,0.00,,CLR,0.00,VWS V14.01,2013-11-03 14:06:00,
2013-11-03 09:11:00,51.8,27.6,30.18,WNW,292,2.7,2.7,39,0.00,,CLR,0.00,VWS V14.01,2013-11-03 14:11:00,
2013-11-03 09:16:00,52.3,28.1,30.18,WNW,292,3.1,3.1,39,0.00,,CLR,0.00,VWS V14.01,2013-11-03 14:16:00,
2013-11-03 09:21:00,52.3,26.9,30.18,WNW,292,4.0,4.0,37,0.00,,CLR,0.00,VWS V14.01,2013-11-03 14:21:00,
2013-11-03 09:26:00,52.7,27.2,30.18,ENE,68,3.1,4.0,37,0.00,,CLR,0.00,VWS V14.01,2013-11-03 14:26:00,
2013-11-03 09:31:00,53.1,26.8,30.18,ENE,68,2.7,2.7,36,0.00,,CLR,0.00,VWS V14.01,2013-11-03 14:31:00,
2013-11-03 09:36:00,53.4,27.1,30.18,ENE,68,2.2,3.1,36,0.00,,CLR,0.00,VWS V14.01,2013-11-03 14:36:00,
2013-11-03 09:41:00,54.3,26.6,30.18,ENE,68,3.6,3.6,34,0.00,,CLR,0.00,VWS V14.01,2013-11-03 14:41:00,
2013-11-03 09:46:00,54.7,25.4,30.18,ENE,68,2.7,3.6,32,0.00,,CLR,0.00,VWS V14.01,2013-11-03 14:46:00,
2013-11-03 09:51:00,55.0,27.2,30.18,NNW,338,4.0,4.0,34,0.00,,CLR,0.00,VWS V14.01,2013-11-03 14:51:00,
2013-11-03 09:56:00,54.9,24.0,30.18,ENE,68,2.2,2.7,30,0.00,,CLR,0.00,VWS V14.01,2013-11-03 14:56:00,
2013-11-03 10:01:00,55.8,24.8,30.18,ENE,68,2.2,3.6,30,0.00,,CLR,0.00,VWS V14.01,2013-11-03 15:01:00,
2013-11-03 10:07:00,56.3,23.6,30.18,ENE,68,2.2,3.6,28,0.00,,CLR,0.00,VWS V14.01,2013-11-03 15:07:00,
2013-11-03 10:12:00,57.7,23.1,30.18,ENE,68,3.1,3.6,26,0.00,,CLR,0.00,VWS V14.01,2013-11-03 15:12:00,
2013-11-03 10:17:00,58.6,23.9,30.18,ENE,68,0.0,0.0,26,0.00,,CLR,0.00,VWS V14.01,2013-11-03 15:17:00,
2013-11-03 10:22:00,59.9,24.0,30.21,SSW,202,3.6,3.6,25,0.00,,CLR,0.00,VWS V14.01,2013-11-03 15:22:00,
2013-11-03 10:27:00,60.3,24.3,30.21,ENE,68,2.7,2.7,25,0.00,,CLR,0.00,VWS V14.01,2013-11-03 15:27:00,
2013-11-03 10:32:00,59.9,24.0,30.21,ENE,68,3.1,4.0,25,0.00,,CLR,0.00,VWS V14.01,2013-11-03 15:32:00,
2013-11-03 10:37:00,59.9,24.0,30.18,ENE,68,2.2,2.7,25,0.00,,CLR,0.00,VWS V14.01,2013-11-03 15:37:00,
2013-11-03 10:42:00,60.8,23.8,30.18,ENE,68,0.0,2.7,24,0.00,,CLR,0.00,VWS V14.01,2013-11-03 15:42:00,
2013-11-03 10:47:00,60.4,23.5,30.18,ENE,68,2.7,2.7,24,0.00,,CLR,0.00,VWS V14.01,2013-11-03 15:47:00,
2013-11-03 10:52:00,61.7,24.6,30.21,ENE,68,2.2,2.7,24,0.00,,CLR,0.00,VWS V14.01,2013-11-03 15:52:00,
2013-11-03 10:57:00,62.2,25.0,30.21,ENE,68,2.2,2.2,24,0.00,,CLR,0.00,VWS V14.01,2013-11-03 15:57:00,
2013-11-03 11:02:00,61.3,24.3,30.21,ENE,68,2.7,2.7,24,0.00,,CLR,0.00,VWS V14.01,2013-11-03 16:02:00,
2013-11-03 11:07:00,62.2,25.0,30.18,ENE,68,3.1,3.1,24,0.00,,CLR,0.00,VWS V14.01,2013-11-03 16:07:00,
2013-11-03 11:12:00,60.8,23.8,30.18,ENE,68,2.7,2.7,24,0.00,,CLR,0.00,VWS V14.01,2013-11-03 16:12:00,
2013-11-03 11:17:00,60.4,23.5,30.18,WSW,248,2.2,3.1,24,0.00,,CLR,0.00,VWS V14.01,2013-11-03 16:17:00,
2013-11-03 11:22:00,60.3,23.4,30.18,WSW,248,2.7,2.7,24,0.00,,CLR,0.00,VWS V14.01,2013-11-03 16:22:00,
2013-11-03 11:27:00,60.4,23.5,30.18,NNE,22,2.7,5.8,24,0.00,,CLR,0.00,VWS V14.01,2013-11-03 16:27:00,
2013-11-03 11:32:00,62.6,22.1,30.18,NNE,22,0.0,2.7,21,0.00,,CLR,0.00,VWS V14.01,2013-11-03 16:32:00,
2013-11-03 11:37:00,62.1,21.7,30.18,WNW,292,0.0,0.0,21,0.00,,CLR,0.00,VWS V14.01,2013-11-03 16:37:00,
2013-11-03 11:42:00,62.1,21.7,30.18,WNW,292,2.7,3.6,21,0.00,,CLR,0.00,VWS V14.01,2013-11-03 16:42:00,
2013-11-03 11:47:00,62.2,21.9,30.18,WNW,292,2.2,4.0,21,0.00,,CLR,0.00,VWS V14.01,2013-11-03 16:47:00,
2013-11-03 11:52:00,64.0,23.3,30.18,North,0,0.0,2.7,21,0.00,,CLR,0.00,VWS V14.01,2013-11-03 16:52:00,
2013-11-03 11:57:00,63.5,22.9,30.18,NNW,338,2.2,2.2,21,0.00,,CLR,0.00,VWS V14.01,2013-11-03 16:57:00,
2013-11-03 12:02:00,63.7,23.0,30.18,South,180,3.1,3.1,21,0.00,,CLR,0.00,VWS V14.01,2013-11-03 17:02:00,
2013-11-03 12:07:00,63.3,22.8,30.18,WSW,248,4.0,4.0,21,0.00,,CLR,0.00,VWS V14.01,2013-11-03 17:07:00,
2013-11-03 12:12:00,62.1,21.7,30.18,WSW,248,2.2,2.7,21,0.00,,CLR,0.00,VWS V14.01,2013-11-03 17:12:00,
2013-11-03 12:17:00,64.2,23.5,30.18,WSW,248,3.1,3.1,21,0.00,,CLR,0.00,VWS V14.01,2013-11-03 17:17:00,
2013-11-03 12:22:00,64.8,22.8,30.18,ESE,112,2.2,3.1,20,0.00,,CLR,0.00,VWS V14.01,2013-11-03 17:22:00,
2013-11-03 12:27:00,65.1,20.6,30.18,ESE,112,2.7,2.7,18,0.00,,CLR,0.00,VWS V14.01,2013-11-03 17:27:00,
2013-11-03 12:32:00,65.3,23.2,30.18,ESE,112,2.2,2.2,20,0.00,,CLR,0.00,VWS V14.01,2013-11-03 17:32:00,
2013-11-03 12:37:00,64.9,20.4,30.18,WSW,248,3.6,3.6,18,0.00,,CLR,0.00,VWS V14.01,2013-11-03 17:37:00,
2013-11-03 12:43:00,64.0,19.7,30.18,WNW,292,4.9,4.9,18,0.00,,CLR,0.00,VWS V14.01,2013-11-03 17:43:00,
2013-11-03 12:48:00,64.4,20.0,30.18,North,0,3.1,3.1,18,0.00,,CLR,0.00,VWS V14.01,2013-11-03 17:48:00,
2013-11-03 12:53:00,65.7,23.5,30.18,NW,315,2.7,2.7,20,0.00,,CLR,0.00,VWS V14.01,2013-11-03 17:53:00,
2013-11-03 12:58:00,62.4,19.6,30.18,WSW,248,2.7,2.7,19,0.00,,CLR,0.00,VWS V14.01,2013-11-03 17:58:00,
2013-11-03 13:03:00,64.0,19.7,30.18,West,270,3.1,3.1,18,0.00,,CLR,0.00,VWS V14.01,2013-11-03 18:03:00,
2013-11-03 13:08:00,65.1,20.6,30.15,NW,315,4.0,4.0,18,0.00,,CLR,0.00,VWS V14.01,2013-11-03 18:08:00,
2013-11-03 13:13:00,66.2,20.1,30.15,NW,315,3.6,3.6,17,0.00,,CLR,0.00,VWS V14.01,2013-11-03 18:13:00,
2013-11-03 13:18:00,65.3,20.7,30.15,ENE,68,5.4,5.8,18,0.00,,CLR,0.00,VWS V14.01,2013-11-03 18:18:00,
2013-11-03 13:23:00,64.0,19.7,30.15,ENE,68,2.2,3.1,18,0.00,,CLR,0.00,VWS V14.01,2013-11-03 18:23:00,
2013-11-03 13:28:00,66.2,20.1,30.15,ENE,68,0.0,2.7,17,0.00,,CLR,0.00,VWS V14.01,2013-11-03 18:28:00,
2013-11-03 13:33:00,66.4,20.3,30.15,ENE,68,3.1,5.4,17,0.00,,CLR,0.00,VWS V14.01,2013-11-03 18:33:00,
2013-11-03 13:38:00,64.9,20.4,30.15,WNW,292,5.8,5.8,18,0.00,,CLR,0.00,VWS V14.01,2013-11-03 18:38:00,
2013-11-03 13:43:00,64.9,20.4,30.15,WSW,248,0.0,3.6,18,0.00,,CLR,0.00,VWS V14.01,2013-11-03 18:43:00,
2013-11-03 13:48:00,66.7,20.6,30.15,WSW,248,0.0,0.0,17,0.00,,CLR,0.00,VWS V14.01,2013-11-03 18:48:00,
2013-11-03 13:53:00,66.6,20.4,30.15,WSW,248,3.6,3.6,17,0.00,,CLR,0.00,VWS V14.01,2013-11-03 18:53:00,
2013-11-03 13:58:00,66.6,20.4,30.15,NW,315,2.7,3.6,17,0.00,,CLR,0.00,VWS V14.01,2013-11-03 18:58:00,
2013-11-03 14:03:00,66.0,21.3,30.15,NNE,22,2.7,2.7,18,0.00,,CLR,0.00,VWS V14.01,2013-11-03 19:03:00,
2013-11-03 14:08:00,66.4,20.3,30.15,NNE,22,2.7,3.1,17,0.00,,CLR,0.00,VWS V14.01,2013-11-03 19:08:00,
2013-11-03 14:14:00,66.9,20.7,30.15,NNE,22,0.0,2.7,17,0.00,,CLR,0.00,VWS V14.01,2013-11-03 19:14:00,
2013-11-03 14:19:00,67.1,20.9,30.15,NNE,22,3.1,4.0,17,0.00,,CLR,0.00,VWS V14.01,2013-11-03 19:19:00,
2013-11-03 14:24:00,66.9,20.7,30.15,NNE,22,0.0,0.0,17,0.00,,CLR,0.00,VWS V14.01,2013-11-03 19:24:00,
2013-11-03 14:29:00,67.1,20.9,30.15,NNE,22,2.2,2.2,17,0.00,,CLR,0.00,VWS V14.01,2013-11-03 19:29:00,
2013-11-03 14:34:00,67.3,21.0,30.15,WNW,292,5.8,5.8,17,0.00,,CLR,0.00,VWS V14.01,2013-11-03 19:34:00,
2013-11-03 14:39:00,65.1,20.6,30.15,NNW,338,3.6,3.6,18,0.00,,CLR,0.00,VWS V14.01,2013-11-03 19:39:00,
2013-11-03 14:44:00,64.2,19.9,30.15,NNE,22,3.1,3.1,18,0.00,,CLR,0.00,VWS V14.01,2013-11-03 19:44:00,
2013-11-03 14:49:00,64.6,20.1,30.15,NNE,22,3.6,3.6,18,0.00,,CLR,0.00,VWS V14.01,2013-11-03 19:49:00,
2013-11-03 14:54:00,65.1,20.6,30.15,NNE,22,2.2,2.7,18,0.00,,CLR,0.00,VWS V14.01,2013-11-03 19:54:00,
2013-11-03 14:59:00,64.8,20.3,30.15,NNE,22,0.0,2.2,18,0.00,,CLR,0.00,VWS V14.01,2013-11-03 19:59:00,
2013-11-03 15:04:00,63.3,19.1,30.15,NNE,22,2.2,2.2,18,0.00,,CLR,0.00,VWS V14.01,2013-11-03 20:04:00,
2013-11-03 15:09:00,63.0,18.8,30.15,NNE,22,0.0,0.0,18,0.00,,CLR,0.00,VWS V14.01,2013-11-03 20:09:00,
2013-11-03 15:14:00,61.7,19.0,30.15,NNE,22,3.6,3.6,19,0.00,,CLR,0.00,VWS V14.01,2013-11-03 20:14:00,
2013-11-03 15:19:00,60.8,18.3,30.15,NNE,22,4.9,4.9,19,0.00,,CLR,0.00,VWS V14.01,2013-11-03 20:19:00,
2013-11-03 15:24:00,61.0,18.5,30.15,NNE,22,0.0,2.7,19,0.00,,CLR,0.00,VWS V14.01,2013-11-03 20:24:00,
2013-11-03 15:29:00,60.6,18.2,30.15,NNE,22,2.7,3.6,19,0.00,,CLR,0.00,VWS V14.01,2013-11-03 20:29:00,
2013-11-03 15:34:00,60.3,17.9,30.15,NNE,22,2.7,2.7,19,0.00,,CLR,0.00,VWS V14.01,2013-11-03 20:34:00,
2013-11-03 15:39:00,60.4,18.0,30.15,NNE,22,2.7,2.7,19,0.00,,CLR,0.00,VWS V14.01,2013-11-03 20:39:00,
2013-11-03 15:44:00,60.3,17.9,30.15,NNE,22,0.0,2.2,19,0.00,,CLR,0.00,VWS V14.01,2013-11-03 20:44:00,
2013-11-03 15:50:00,60.4,18.0,30.15,NNE,22,2.2,2.7,19,0.00,,CLR,0.00,VWS V14.01,2013-11-03 20:50:00,
2013-11-03 15:55:00,60.6,18.2,30.15,NNE,22,2.7,3.6,19,0.00,,CLR,0.00,VWS V14.01,2013-11-03 20:55:00,
2013-11-03 16:00:00,60.1,17.7,30.15,NNE,22,3.6,4.0,19,0.00,,CLR,0.00,VWS V14.01,2013-11-03 21:00:00,
2013-11-03 16:05:00,59.7,17.4,30.15,NNE,22,0.0,0.0,19,0.00,,CLR,0.00,VWS V14.01,2013-11-03 21:05:00,
2013-11-03 16:10:00,59.0,16.8,30.18,NNE,22,0.0,2.7,19,0.00,,CLR,0.00,VWS V14.01,2013-11-03 21:10:00,
2013-11-03 16:15:00,58.6,16.5,30.18,NNE,22,2.2,3.1,19,0.00,,CLR,0.00,VWS V14.01,2013-11-03 21:15:00,
2013-11-03 16:20:00,58.5,16.4,30.18,NNE,22,2.7,3.1,19,0.00,,CLR,0.00,VWS V14.01,2013-11-03 21:20:00,
2013-11-03 16:25:00,57.9,19.3,30.18,NNE,22,0.0,0.0,22,0.00,,CLR,0.00,VWS V14.01,2013-11-03 21:25:00,
2013-11-03 16:30:00,57.7,19.2,30.18,NNE,22,2.2,3.1,22,0.00,,CLR,0.00,VWS V14.01,2013-11-03 21:30:00,
2013-11-03 16:35:00,57.6,19.0,30.15,NNE,22,0.0,0.0,22,0.00,,CLR,0.00,VWS V14.01,2013-11-03 21:35:00,
2013-11-03 16:40:00,57.4,18.9,30.15,NNE,22,0.0,0.0,22,0.00,,CLR,0.00,VWS V14.01,2013-11-03 21:40:00,
2013-11-03 16:45:00,57.2,18.7,30.15,NNE,22,2.2,2.2,22,0.00,,CLR,0.00,VWS V14.01,2013-11-03 21:45:00,
2013-11-03 16:50:00,56.7,18.3,30.18,NNE,22,0.0,2.7,22,0.00,,CLR,0.00,VWS V14.01,2013-11-03 21:50:00,
2013-11-03 16:55:00,56.5,21.1,30.18,NNE,22,0.0,0.0,25,0.00,,CLR,0.00,VWS V14.01,2013-11-03 21:55:00,
2013-11-03 17:00:00,56.1,20.8,30.18,NNE,22,0.0,2.2,25,0.00,,CLR,0.00,VWS V14.01,2013-11-03 22:00:00,
2013-11-03 17:05:00,55.8,20.5,30.18,NNE,22,0.0,0.0,25,0.00,,CLR,0.00,VWS V14.01,2013-11-03 22:05:00,
2013-11-03 17:10:00,55.2,21.0,30.18,NNE,22,0.0,0.0,26,0.00,,CLR,0.00,VWS V14.01,2013-11-03 22:10:00,
2013-11-03 17:15:00,54.5,21.2,30.18,NNE,22,0.0,0.0,27,0.00,,CLR,0.00,VWS V14.01,2013-11-03 22:15:00,
2013-11-03 17:20:00,53.8,20.6,30.21,NNE,22,0.0,0.0,27,0.00,,CLR,0.00,VWS V14.01,2013-11-03 22:20:00,
2013-11-03 17:25:00,53.1,20.8,30.21,NNE,22,0.0,0.0,28,0.00,,CLR,0.00,VWS V14.01,2013-11-03 22:25:00,
2013-11-03 17:30:00,52.3,21.0,30.21,NNE,22,0.0,0.0,29,0.00,,CLR,0.00,VWS V14.01,2013-11-03 22:30:00,
2013-11-03 17:35:00,51.8,20.6,30.18,NNE,22,0.0,0.0,29,0.00,,CLR,0.00,VWS V14.01,2013-11-03 22:35:00,
2013-11-03 17:40:00,51.3,22.4,30.18,NNE,22,0.0,0.0,32,0.00,,CLR,0.00,VWS V14.01,2013-11-03 22:40:00,
2013-11-03 17:46:00,50.7,22.7,30.18,NNE,22,0.0,0.0,33,0.00,,CLR,0.00,VWS V14.01,2013-11-03 22:46:00,
2013-11-03 17:51:00,50.4,22.4,30.21,NNE,22,0.0,0.0,33,0.00,,CLR,0.00,VWS V14.01,2013-11-03 22:51:00,
2013-11-03 17:56:00,49.6,22.4,30.21,NNE,22,0.0,0.0,34,0.00,,CLR,0.00,VWS V14.01,2013-11-03 22:56:00,
2013-11-03 18:01:00,49.3,24.1,30.21,NNE,22,0.0,0.0,37,0.00,,CLR,0.00,VWS V14.01,2013-11-03 23:01:00,
2013-11-03 18:06:00,48.9,23.8,30.21,NNE,22,0.0,0.0,37,0.00,,CLR,0.00,VWS V14.01,2013-11-03 23:06:00,
2013-11-03 18:11:00,48.7,23.6,30.21,NNE,22,0.0,0.0,37,0.00,,CLR,0.00,VWS V14.01,2013-11-03 23:11:00,
2013-11-03 18:16:00,48.6,23.5,30.21,NNE,22,0.0,0.0,37,0.00,,CLR,0.00,VWS V14.01,2013-11-03 23:16:00,
2013-11-03 18:21:00,48.0,23.0,30.21,NNE,22,0.0,0.0,37,0.00,,CLR,0.00,VWS V14.01,2013-11-03 23:21:00,
2013-11-03 18:26:00,47.8,22.9,30.21,NNE,22,0.0,0.0,37,0.00,,CLR,0.00,VWS V14.01,2013-11-03 23:26:00,
2013-11-03 18:31:00,47.7,23.3,30.21,NNE,22,0.0,0.0,38,0.00,,CLR,0.00,VWS V14.01,2013-11-03 23:31:00,
2013-11-03 18:36:00,47.3,23.0,30.24,NNE,22,0.0,0.0,38,0.00,,CLR,0.00,VWS V14.01,2013-11-03 23:36:00,
2013-11-03 18:41:00,47.3,23.0,30.24,NNE,22,0.0,0.0,38,0.00,,CLR,0.00,VWS V14.01,2013-11-03 23:41:00,
2013-11-03 18:46:00,47.1,23.5,30.24,NNE,22,0.0,0.0,39,0.00,,CLR,0.00,VWS V14.01,2013-11-03 23:46:00,
2013-11-03 18:51:00,46.6,23.0,30.24,NNE,22,0.0,0.0,39,0.00,,CLR,0.00,VWS V14.01,2013-11-03 23:51:00,
2013-11-03 18:57:00,46.6,23.0,30.24,NNE,22,0.0,0.0,39,0.00,,CLR,0.00,VWS V14.01,2013-11-03 23:57:00,
2013-11-03 19:02:00,46.4,22.8,30.24,NNE,22,0.0,0.0,39,0.00,,CLR,0.00,VWS V14.01,2013-11-04 00:02:00,
2013-11-03 19:07:00,46.0,23.1,30.24,NNE,22,0.0,0.0,40,0.00,,CLR,0.00,VWS V14.01,2013-11-04 00:07:00,
2013-11-03 19:12:00,45.9,22.9,30.24,NNE,22,0.0,0.0,40,0.00,,CLR,0.00,VWS V14.01,2013-11-04 00:12:00,
2013-11-03 19:17:00,46.2,23.2,30.24,NNE,22,0.0,0.0,40,0.00,,CLR,0.00,VWS V14.01,2013-11-04 00:17:00,
2013-11-03 19:22:00,46.4,23.4,30.24,NNE,22,0.0,0.0,40,0.00,,CLR,0.00,VWS V14.01,2013-11-04 00:22:00,
2013-11-03 19:27:00,45.9,22.9,30.24,NNE,22,0.0,0.0,40,0.00,,CLR,0.00,VWS V14.01,2013-11-04 00:27:00,
2013-11-03 19:32:00,46.0,23.7,30.24,NNE,22,0.0,0.0,41,0.00,,CLR,0.00,VWS V14.01,2013-11-04 00:32:00,
2013-11-03 19:37:00,45.7,23.4,30.24,NNE,22,0.0,2.7,41,0.00,,CLR,0.00,VWS V14.01,2013-11-04 00:37:00,
2013-11-03 19:42:00,45.9,22.9,30.24,NNE,22,0.0,0.0,40,0.00,,CLR,0.00,VWS V14.01,2013-11-04 00:42:00,
2013-11-03 19:47:00,46.0,23.1,30.24,NNE,22,0.0,0.0,40,0.00,,CLR,0.00,VWS V14.01,2013-11-04 00:47:00,
2013-11-03 19:52:00,46.0,23.1,30.24,NNE,22,0.0,0.0,40,0.00,,CLR,0.00,VWS V14.01,2013-11-04 00:52:00,
2013-11-03 19:57:00,45.9,22.9,30.24,NNE,22,0.0,0.0,40,0.00,,CLR,0.00,VWS V14.01,2013-11-04 00:57:00,
2013-11-03 20:02:00,45.7,22.8,30.24,NNE,22,0.0,0.0,40,0.00,,CLR,0.00,VWS V14.01,2013-11-04 01:02:00,
2013-11-03 20:07:00,45.3,22.4,30.24,NNE,22,0.0,0.0,40,0.00,,CLR,0.00,VWS V14.01,2013-11-04 01:07:00,
2013-11-03 20:12:00,46.0,23.1,30.24,NNE,22,0.0,0.0,40,0.00,,CLR,0.00,VWS V14.01,2013-11-04 01:12:00,
2013-11-03 20:17:00,46.2,22.6,30.24,NNE,22,0.0,0.0,39,0.00,,CLR,0.00,VWS V14.01,2013-11-04 01:17:00,
2013-11-03 20:22:00,46.2,22.6,30.27,NNE,22,0.0,0.0,39,0.00,,CLR,0.00,VWS V14.01,2013-11-04 01:22:00,
2013-11-03 20:28:00,45.9,22.3,30.27,NNE,22,0.0,0.0,39,0.00,,CLR,0.00,VWS V14.01,2013-11-04 01:28:00,
2013-11-03 20:33:00,45.9,22.3,30.27,NNE,22,0.0,0.0,39,0.00,,CLR,0.00,VWS V14.01,2013-11-04 01:33:00,
2013-11-03 20:38:00,45.7,22.2,30.27,NNE,22,0.0,0.0,39,0.00,,CLR,0.00,VWS V14.01,2013-11-04 01:38:00,
2013-11-03 20:43:00,45.5,22.6,30.27,NNE,22,0.0,0.0,40,0.00,,CLR,0.00,VWS V14.01,2013-11-04 01:43:00,
2013-11-03 20:48:00,45.0,22.1,30.27,NNE,22,0.0,0.0,40,0.00,,CLR,0.00,VWS V14.01,2013-11-04 01:48:00,
2013-11-03 20:53:00,44.8,22.0,30.27,NNE,22,0.0,0.0,40,0.00,,CLR,0.00,VWS V14.01,2013-11-04 01:53:00,
2013-11-03 20:58:00,44.4,21.6,30.27,NNE,22,0.0,0.0,40,0.00,,CLR,0.00,VWS V14.01,2013-11-04 01:58:00,
2013-11-03 21:03:00,44.4,22.2,30.27,NNE,22,0.0,0.0,41,0.00,,CLR,0.00,VWS V14.01,2013-11-04 02:03:00,
2013-11-03 21:08:00,44.2,22.6,30.27,NNE,22,0.0,0.0,42,0.00,,CLR,0.00,VWS V14.01,2013-11-04 02:08:00,
2013-11-03 21:13:00,43.9,22.3,30.27,NNE,22,0.0,0.0,42,0.00,,CLR,0.00,VWS V14.01,2013-11-04 02:13:00,
2013-11-03 21:18:00,43.7,22.7,30.27,NNE,22,0.0,0.0,43,0.00,,CLR,0.00,VWS V14.01,2013-11-04 02:18:00,
2013-11-03 21:23:00,43.5,23.1,30.27,NNE,22,0.0,0.0,44,0.00,,CLR,0.00,VWS V14.01,2013-11-04 02:23:00,
2013-11-03 21:28:00,43.3,22.9,30.27,NNE,22,0.0,0.0,44,0.00,,CLR,0.00,VWS V14.01,2013-11-04 02:28:00,
2013-11-03 21:33:00,43.3,22.9,30.27,NNE,22,0.0,0.0,44,0.00,,CLR,0.00,VWS V14.01,2013-11-04 02:33:00,
2013-11-03 21:38:00,43.3,22.9,30.27,NNE,22,0.0,0.0,44,0.00,,CLR,0.00,VWS V14.01,2013-11-04 02:38:00,
2013-11-03 21:44:00,43.0,22.6,30.27,NNE,22,0.0,0.0,44,0.00,,CLR,0.00,VWS V14.01,2013-11-04 02:44:00,
2013-11-03 21:49:00,43.2,22.7,30.27,NNE,22,0.0,0.0,44,0.00,,CLR,0.00,VWS V14.01,2013-11-04 02:49:00,
2013-11-03 21:54:00,42.8,22.4,30.30,NNE,22,0.0,0.0,44,0.00,,CLR,0.00,VWS V14.01,2013-11-04 02:54:00,
2013-11-03 21:59:00,43.0,22.6,30.30,NNE,22,0.0,0.0,44,0.00,,CLR,0.00,VWS V14.01,2013-11-04 02:59:00,
2013-11-03 22:04:00,42.6,23.8,30.30,NNE,22,0.0,0.0,47,0.00,,CLR,0.00,VWS V14.01,2013-11-04 03:04:00,
2013-11-03 22:09:00,42.4,23.1,30.30,NNE,22,0.0,0.0,46,0.00,,CLR,0.00,VWS V14.01,2013-11-04 03:09:00,
2013-11-03 22:14:00,42.4,23.6,30.30,NNE,22,0.0,0.0,47,0.00,,CLR,0.00,VWS V14.01,2013-11-04 03:14:00,
2013-11-03 22:19:00,42.3,23.5,30.30,NNE,22,0.0,2.2,47,0.00,,CLR,0.00,VWS V14.01,2013-11-04 03:19:00,
2013-11-03 22:24:00,42.3,23.5,30.27,NNE,22,0.0,2.2,47,0.00,,CLR,0.00,VWS V14.01,2013-11-04 03:24:00,
2013-11-03 22:29:00,42.3,23.5,30.27,NNE,22,0.0,0.0,47,0.00,,CLR,0.00,VWS V14.01,2013-11-04 03:29:00,
2013-11-03 22:34:00,42.1,23.8,30.27,NNE,22,0.0,0.0,48,0.00,,CLR,0.00,VWS V14.01,2013-11-04 03:34:00,
2013-11-03 22:39:00,42.1,23.8,30.30,NNE,22,0.0,0.0,48,0.00,,CLR,0.00,VWS V14.01,2013-11-04 03:39:00,
2013-11-03 22:44:00,41.5,23.8,30.30,NNE,22,0.0,0.0,49,0.00,,CLR,0.00,VWS V14.01,2013-11-04 03:44:00,
2013-11-03 22:49:00,41.4,23.6,30.30,NNE,22,0.0,0.0,49,0.00,,CLR,0.00,VWS V14.01,2013-11-04 03:49:00,
2013-11-03 22:54:00,41.2,24.0,30.30,NNE,22,0.0,0.0,50,0.00,,CLR,0.00,VWS V14.01,2013-11-04 03:54:00,
2013-11-03 22:59:00,41.2,24.0,30.30,NNE,22,0.0,0.0,50,0.00,,CLR,0.00,VWS V14.01,2013-11-04 03:59:00,
2013-11-03 23:04:00,41.2,24.0,30.30,NNE,22,0.0,0.0,50,0.00,,CLR,0.00,VWS V14.01,2013-11-04 04:04:00,
2013-11-03 23:09:00,41.2,24.0,30.30,NNE,22,0.0,0.0,50,0.00,,CLR,0.00,VWS V14.01,2013-11-04 04:09:00,
2013-11-03 23:15:00,40.5,24.2,30.30,NNE,22,0.0,0.0,52,0.00,,CLR,0.00,VWS V14.01,2013-11-04 04:15:00,
2013-11-03 23:20:00,39.9,24.6,30.30,NNE,22,0.0,2.7,54,0.00,,CLR,0.00,VWS V14.01,2013-11-04 04:20:00,
2013-11-03 23:25:00,39.7,25.3,30.30,NNE,22,0.0,0.0,56,0.00,,CLR,0.00,VWS V14.01,2013-11-04 04:25:00,
2013-11-03 23:30:00,39.4,25.9,30.30,NNE,22,0.0,0.0,58,0.00,,CLR,0.00,VWS V14.01,2013-11-04 04:30:00,
2013-11-03 23:35:00,39.0,26.3,30.30,NNE,22,0.0,0.0,60,0.00,,CLR,0.00,VWS V14.01,2013-11-04 04:35:00,
2013-11-03 23:40:00,38.7,26.8,30.30,NNE,22,0.0,0.0,62,0.00,,CLR,0.00,VWS V14.01,2013-11-04 04:40:00,
2013-11-03 23:45:00,38.5,27.0,30.30,NNE,22,0.0,0.0,63,0.00,,CLR,0.00,VWS V14.01,2013-11-04 04:45:00,
2013-11-03 23:50:00,37.6,27.3,30.30,NNE,22,2.2,2.2,66,0.00,,CLR,0.00,VWS V14.01,2013-11-04 04:50:00,
2013-11-03 23:55:00,37.4,28.2,30.30,NNE,22,0.0,0.0,69,0.00,,CLR,0.00,VWS V14.01,2013-11-04 04:55:00,